• Join FlightAware (Why Join?)
  • Login
  • US Flag 
01:21AM EDT


 

Airport Tracker/Info


-or-


 

Live Flight TrackerFlight Track Log ✈ SWA3321 ✈ 14-Apr-2013 ✈ KMCO - KMHT

Flight Track Log - Related Links

Times and Time Zones

All times are in EDT time to prevent confusion due to time zone crossing. See the SWA3321 flight status page for this flight to view local times or setup timezone preferences in your user account.

Time Position Orientation Groundspeed Altitude Reporting Facility
EDT Latitude Longitude Course Direction KTS MPH feet Rate Location/Type
11:40AM 28.4167 -81.3167 139° Southeast 161 185 600  Level Orlando TRACON
11:41AM 28.3833 -81.2833 139° Southeast 197 227 2,600 2,580 Climbing Orlando TRACON
11:42AM 28.3500 -81.2333 127° Southeast 227 261 5,800 2,760 Climbing Orlando TRACON
11:44AM 28.4222 -81.1625 41° Northeast 255 293 10,700 2,460 Climbing Jacksonville Center
11:45AM 28.5122 -81.1939 343° North 263 303 12,900 2,760 Climbing Jacksonville Center
11:46AM 28.6108 -81.2278 343° North 317 365 16,300 3,060 Climbing Jacksonville Center
11:47AM 28.7133 -81.2617 344° North 352 405 19,100 2,940 Climbing Jacksonville Center
11:48AM 28.8161 -81.2956 344° North 376 433 22,200 1,920 Climbing Jacksonville Center
11:49AM 28.9208 -81.3294 344° North 386 444 23,000 360 Climbing Jacksonville Center
11:50AM 29.0236 -81.3681 342° North 386 444 23,000  Level Jacksonville Center
11:51AM 29.1325 -81.3950 348° North 386 444 23,100 1,020 Climbing Jacksonville Center
11:52AM 29.2453 -81.4050 356° North 393 452 25,100 1,980 Climbing Jacksonville Center
11:53AM 29.3644 -81.4128 357° North 406 467 27,100 1,980 Climbing Jacksonville Center
11:54AM 29.4942 -81.4300 353° North 417 480 29,100 1,740 Climbing Jacksonville Center
11:55AM 29.6172 -81.4425 355° North 428 493 30,600 1,500 Climbing Jacksonville Center
11:56AM 29.7428 -81.4550 355° North 438 504 32,200 1,200 Climbing Jacksonville Center
11:57AM 29.8703 -81.4650 356° North 450 518 33,000 360 Climbing Jacksonville Center
11:58AM 29.9956 -81.4775 355° North 450 518 33,000  Level Jacksonville Center
11:59AM 30.1189 -81.4878 356° North 450 518 33,000  Level Jacksonville Center
12:00PM 30.2464 -81.5003 355° North 450 518 33,000  Level Jacksonville Center
12:01PM 30.3739 -81.5081 357° North 450 518 33,000  Level Jacksonville Center
12:02PM 30.5031 -81.4989 North 450 518 33,000  Level Jacksonville Center
12:03PM 30.6219 -81.4875 North 461 531 33,000  Level Jacksonville Center
12:04PM 30.7494 -81.4786 North 461 531 33,000  Level Jacksonville Center
12:05PM 30.8767 -81.4669 North 461 531 33,000  Level Jacksonville Center
12:06PM 31.0081 -81.4578 North 461 531 33,000  Level Jacksonville Center
12:07PM 31.1311 -81.4486 North 456 525 33,000  Level Jacksonville Center
12:08PM 31.2603 -81.4344 North 456 525 33,000  Level Jacksonville Center
12:09PM 31.3997 -81.3981 13° North 466 536 33,000  Level Jacksonville Center
12:10PM 31.5142 -81.3647 14° North 466 536 33,000  Level Jacksonville Center
12:11PM 31.6581 -81.3306 11° North 466 536 33,000  Level Jacksonville Center
12:12PM 31.7828 -81.2967 13° North 466 536 33,000 480 Level Jacksonville Center
12:13PM 31.8992 -81.2653 13° North 471 542 34,000 960 Climbing Jacksonville Center
12:14PM 32.0303 -81.2261 14° North 471 542 35,000 900 Climbing Jacksonville Center
12:15PM 32.1569 -81.1675 21° North 471 542 35,900 1,380 Climbing Jacksonville Center
12:16PM 32.2769 -81.0939 27° Northeast 478 550 37,800 1,380 Climbing Jacksonville Center
12:17PM 32.4053 -81.0103 29° Northeast 478 550 38,700 600 Climbing Jacksonville Center
12:18PM 32.5125 -80.9292 33° Northeast 484 557 39,000 120 Climbing Jacksonville Center
12:19PM 32.6300 -80.8428 32° Northeast 490 564 39,000  Level Jacksonville Center
12:20PM 32.7497 -80.7561 31° Northeast 490 564 39,000  Level Jacksonville Center
12:21PM 32.8797 -80.6714 29° Northeast 484 557 39,000  Level Jacksonville Center
12:22PM 33.0017 -80.5989 26° Northeast 478 550 39,000  Level Jacksonville Center
12:23PM 33.1256 -80.5264 26° Northeast 483 556 39,000  Level Jacksonville Center
12:24PM 33.2494 -80.4511 27° Northeast 489 563 39,000  Level Jacksonville Center
12:25PM 33.3711 -80.3756 27° Northeast 489 563 39,000  Level Jacksonville Center
12:26PM 33.4947 -80.2997 27° Northeast 489 563 39,000  Level Jacksonville Center
12:27PM 33.6183 -80.2239 27° Northeast 489 563 39,000  Level Jacksonville Center
12:28PM 33.7419 -80.1453 28° Northeast 489 563 39,000  Level Jacksonville Center
12:29PM 33.8675 -80.0689 27° Northeast 489 563 39,000  Level Jacksonville Center
12:30PM 33.9928 -79.9897 28° Northeast 494 568 39,000  Level Jacksonville Center
12:31PM 34.1183 -79.9103 28° Northeast 494 568 39,000  Level Jacksonville Center
12:32PM 34.2417 -79.8331 27° Northeast 494 568 39,000  Level Jacksonville Center
12:34PM 34.4858 -79.6786 28° Northeast 496 571 39,000  Level Washington Center
12:36PM 34.6088 -79.5891 31° Northeast  Level FlightAware Approximate
12:36PM 34.7331 -79.5242 31° Northeast 496 571 39,000  Level Washington Center
12:37PM 34.8525 -79.4467 28° Northeast 491 565 39,000  Level Washington Center
12:38PM 34.9761 -79.3664 28° Northeast 491 565 39,000  Level Washington Center
12:39PM 35.0975 -79.2881 28° Northeast 491 565 39,000  Level Washington Center
12:40PM 35.2272 -79.2050 28° Northeast 486 559 39,000  Level Washington Center
12:41PM 35.3422 -79.1314 28° Northeast 506 582 39,000  Level Washington Center
12:42PM 35.4717 -79.0503 27° Northeast 501 577 39,000  Level Washington Center
12:43PM 35.5931 -78.9714 28° Northeast 490 564 39,000  Level Washington Center
12:44PM 35.7119 -78.8944 28° Northeast 485 558 39,000  Level Washington Center
12:45PM 35.8289 -78.8175 28° Northeast 480 552 39,000  Level Washington Center
12:46PM 35.9375 -78.7347 32° Northeast 466 536 39,000  Level Washington Center
12:47PM 36.0422 -78.6386 37° Northeast 466 536 39,000  Level Washington Center
12:48PM 36.1511 -78.5425 35° Northeast 466 536 39,000  Level Washington Center
12:49PM 36.2597 -78.4486 35° Northeast 471 542 39,000  Level Washington Center
12:50PM 36.3683 -78.3519 36° Northeast 477 549 39,000  Level Washington Center
12:51PM 36.4769 -78.2550 36° Northeast 477 549 39,000  Level Washington Center
12:52PM 36.5833 -78.1606 35° Northeast 477 549 39,000  Level Washington Center
12:53PM 36.6750 -78.0756 37° Northeast 463 533 39,000  Level Washington Center
12:54PM 36.7811 -77.9778 36° Northeast 469 540 39,000  Level Washington Center
12:55PM 36.8814 -77.8717 40° Northeast 469 540 39,000  Level Washington Center
12:56PM 36.9631 -77.7339 53° Northeast 469 540 39,000  Level Washington Center
12:57PM 37.0469 -77.5931 53° Northeast 489 563 39,000  Level Washington Center
12:58PM 37.1306 -77.4544 53° Northeast 495 570 39,000  Level Washington Center
12:59PM 37.2097 -77.3181 54° Northeast 500 575 39,000  Level Washington Center
01:00PM 37.2931 -77.1764 53° Northeast 500 575 39,000  Level Washington Center
01:01PM 37.3925 -77.0686 41° Northeast 479 551 39,000  Level Washington Center
01:02PM 37.4914 -76.9947 31° Northeast 455 524 39,000  Level Washington Center
01:03PM 37.6114 -76.9053 31° Northeast 455 524 39,000  Level Washington Center
01:04PM 37.7186 -76.8258 30° Northeast 450 518 39,000  Level Washington Center
01:05PM 37.8278 -76.7458 30° Northeast 450 518 39,000  Level Washington Center
01:06PM 37.9369 -76.6633 31° Northeast 450 518 39,000  Level Washington Center
01:07PM 38.0439 -76.5831 31° Northeast 450 518 39,000  Level Washington Center
01:08PM 38.1511 -76.5000 31° Northeast 450 518 39,000  Level Washington Center
01:09PM 38.2600 -76.4194 30° Northeast 450 518 39,000  Level Washington Center
01:10PM 38.3669 -76.3306 33° Northeast 450 518 39,000  Level Washington Center
01:11PM 38.4739 -76.2308 36° Northeast 461 531 39,000  Level Washington Center
01:12PM 38.5869 -76.1256 36° Northeast 467 537 39,000  Level Washington Center
01:13PM 38.6917 -76.0278 36° Northeast 467 537 39,000  Level Washington Center
01:14PM 38.7939 -75.9300 37° Northeast 467 537 39,000  Level Washington Center
01:15PM 38.8983 -75.8369 35° Northeast 457 526 39,000  Level Washington Center
01:16PM 39.0008 -75.7411 36° Northeast 457 526 39,000  Level Washington Center
01:18PM 39.1578 -75.6469 25° Northeast 450 518 39,000  Level New York Center
01:19PM 39.2706 -75.5956 19° North 435 501 39,000  Level New York Center
01:20PM 39.3811 -75.5411 21° North 419 482 39,000  Level New York Center
01:21PM 39.4897 -75.4867 21° North 414 476 39,000  Level New York Center
01:22PM 39.6003 -75.4294 22° Northeast 414 476 39,000  Level New York Center
01:23PM 39.7108 -75.3775 20° North 414 476 39,000  Level New York Center
01:24PM 39.8214 -75.3225 21° North 414 476 39,000 -480 Level New York Center
01:25PM 39.9297 -75.2700 20° North 414 476 38,100 -1,020 Descending New York Center
01:26PM 40.0403 -75.2147 21° North 414 476 37,000 -600 Descending New York Center
01:27PM 40.1486 -75.1592 21° North 414 476 37,000  Level New York Center
01:28PM 40.2633 -75.1011 21° North 419 482 37,000  Level New York Center
01:29PM 40.3717 -75.0453 21° North 419 482 37,000  Level New York Center
01:30PM 40.4819 -74.9894 21° North 419 482 37,000  Level New York Center
01:31PM 40.5903 -74.9331 22° Northeast 410 472 37,000  Level New York Center
01:32PM 40.7092 -74.8747 20° North 410 472 37,000 -240 Level New York Center
01:33PM 40.8172 -74.8208 21° North 415 478 36,600 -660 Descending New York Center
01:34PM 40.9253 -74.7642 22° Northeast 415 478 35,700 -480 Descending New York Center
01:36PM 41.1786 -74.6325 21° North 409 471 35,000 -240 Descending Boston Center
01:38PM 41.3006 -74.5733 20° North 418 481 35,000  Level Boston Center
01:39PM 41.4311 -74.5056 21° North 418 481 35,000  Level Boston Center
01:40PM 41.5175 -74.4611 21° North 418 481 35,000 -360 Level Boston Center
01:41PM 41.6519 -74.3906 21° North 413 475 34,300 -900 Descending Boston Center
01:42PM 41.7594 -74.3297 23° Northeast 417 480 33,300 -900 Descending Boston Center
01:43PM 41.8539 -74.2853 19° North 408 470 32,500 -900 Descending Boston Center
01:44PM 41.9694 -74.2244 21° North 408 470 31,500 -1,020 Descending Boston Center
01:45PM 42.0747 -74.1575 25° Northeast 413 475 30,500 -1,020 Descending Boston Center
01:46PM 42.1661 -74.0478 42° Northeast 422 486 29,500 -1,020 Descending Boston Center
01:47PM 42.2469 -73.9294 47° Northeast 422 486 28,500 -1,020 Descending Boston Center
01:48PM 42.2986 -73.7761 65° Northeast 422 486 27,500 -900 Descending Boston Center
01:49PM 42.3397 -73.6564 65° Northeast 438 504 26,700 -1,020 Descending Boston Center
01:50PM 42.3997 -73.4803 65° Northeast 426 490 25,500 -1,020 Descending Boston Center
01:51PM 42.4383 -73.3628 66° East 426 490 24,700 -960 Descending Boston Center
01:52PM 42.4917 -73.2003 66° East 426 490 23,600 -1,080 Descending Boston Center
01:53PM 42.5406 -73.0572 65° Northeast 416 479 22,600 -1,020 Descending Boston Center
01:54PM 42.5892 -72.9139 65° Northeast 408 470 21,600 -1,260 Descending Boston Center
01:55PM 42.6311 -72.7786 67° East 397 457 20,100 -1,860 Descending Boston Center
01:56PM 42.6650 -72.6236 73° East 391 450 17,900 -2,040 Descending Boston Center
01:57PM 42.6983 -72.4825 72° East 386 444 16,100 -1,800 Descending Boston Center
01:58PM 42.7297 -72.3469 72° East 380 437 14,400 -1,680 Descending Boston Center
01:59PM 42.7567 -72.2167 74° East 368 423 12,700 -1,680 Descending Boston Center
02:00PM 42.7814 -72.1033 73° East 352 405 11,100 -1,560 Descending Boston Center
02:01PM 42.8100 -71.9758 73° East 336 387 9,700 -1,380 Descending Boston Center
02:02PM 42.8200 -71.8739 82° East 310 357 8,400 -1,560 Descending Boston Center
02:03PM 42.8111 -71.7581 96° East 288 331 6,600 -1,680 Descending Boston Center
02:04PM 42.8061 -71.6561 94° East 288 331 5,200 -840 Descending Boston Center
02:05PM 42.7969 -71.5489 97° East 273 314 5,000 -600 Descending Boston Center
02:06PM 42.8047 -71.4722 82° East 242 278 4,100 -1,200 Descending Boston Center
02:07PM 42.8206 -71.3786 77° East 230 265 2,600 -1,200 Descending Boston Center
02:08PM 42.8539 -71.3864 350° North 143 165 1,800 -840 Descending Boston Center
02:09PM 42.8897 -71.4114 333° Northwest 104 120 1,000 -660 Descending Boston Center
02:10PM 42.9169 -71.4222 344° North 119 137 500 3,900 Descending Boston Center
02:11PM 42.9503 -71.4331 347° North 119 137 9,000 4,200 Climbing Boston Center
02:12PM 42.9817 -71.4467 342° North 119 137 9,000  Level Boston Center
02:13PM 43.0131 -71.4606 342° North 119 137 9,000  Level Boston Center
02:15PM 42.9328 -71.4358 180° South  Level Estimated
02:22PM 42.9328 -71.4358 180° South  Level Estimated
02:23PM 42.9328 -71.4358 180° South  Level Estimated
02:24PM 42.9328 -71.4358 180° South  Level Estimated
02:25PM 42.9328 -71.4358 180° South  Level Estimated
02:26PM 42.9328 -71.4358 180° South  Level Estimated